createdAt,value
2023-01-08T00:01:23.395Z,9.73
2023-01-08T00:03:26.583Z,9.55
2023-01-08T00:05:29.936Z,9.35
2023-01-08T00:07:33.256Z,10.05
2023-01-08T00:09:36.351Z,9.20
2023-01-08T00:11:39.411Z,8.57
2023-01-08T00:13:42.494Z,9.43
2023-01-08T00:15:45.546Z,9.60
2023-01-08T00:17:49.908Z,9.95
2023-01-08T00:19:52.947Z,9.07
2023-01-08T00:21:56.020Z,9.00
2023-01-08T00:23:59.159Z,8.98
2023-01-08T00:26:02.735Z,9.30
2023-01-08T00:28:06.005Z,9.82
2023-01-08T00:30:10.212Z,9.13
2023-01-08T00:32:13.432Z,9.45
2023-01-08T00:34:17.861Z,8.88
2023-01-08T00:36:21.152Z,9.52
2023-01-08T00:38:27.035Z,9.40
2023-01-08T00:40:30.157Z,9.77
2023-01-08T00:42:33.201Z,9.52
2023-01-08T00:44:36.216Z,8.70
2023-01-08T00:46:39.282Z,9.85
2023-01-08T00:48:42.323Z,8.85
2023-01-08T00:50:46.756Z,9.27
2023-01-08T00:52:49.760Z,9.68
2023-01-08T00:54:52.858Z,9.70
2023-01-08T00:56:56.081Z,9.57
2023-01-08T00:58:59.191Z,8.82
2023-01-08T01:01:02.438Z,9.63
2023-01-08T01:03:05.476Z,9.02
2023-01-08T01:05:10.744Z,9.45
2023-01-08T01:07:15.200Z,9.57
2023-01-08T01:09:18.229Z,8.77
2023-01-08T01:11:23.567Z,9.00
2023-01-08T01:13:26.950Z,8.93
2023-01-08T01:15:30.008Z,9.45
2023-01-08T01:17:33.021Z,9.20
2023-01-08T01:19:36.073Z,9.30
2023-01-08T01:21:39.156Z,9.98
2023-01-08T01:23:43.498Z,9.20
2023-01-08T01:25:46.517Z,10.27
2023-01-08T01:27:49.514Z,8.40
2023-01-08T01:29:52.753Z,9.73
2023-01-08T01:31:55.807Z,9.40
2023-01-08T01:33:59.112Z,9.35
2023-01-08T01:36:03.027Z,8.65
2023-01-08T01:38:06.137Z,8.52
2023-01-08T01:40:11.837Z,9.00
2023-01-08T01:42:36.506Z,8.20
2023-01-08T01:44:42.794Z,7.97
2023-01-08T01:46:45.948Z,8.70
2023-01-08T01:48:50.634Z,8.82
2023-01-08T01:50:55.154Z,8.25
2023-01-08T01:53:02.018Z,9.15
2023-01-08T01:55:06.263Z,8.55
2023-01-08T01:57:10.680Z,8.40
2023-01-08T01:59:14.507Z,8.50
2023-01-08T02:01:17.890Z,8.30
2023-01-08T02:03:23.347Z,8.45
2023-01-08T02:05:31.532Z,8.15
2023-01-08T02:07:40.527Z,8.02
2023-01-08T02:09:49.892Z,8.43
2023-01-08T02:12:13.008Z,7.65
2023-01-08T02:14:23.863Z,8.15
2023-01-08T02:16:33.527Z,7.75
2023-01-08T02:18:41.772Z,8.32
2023-01-08T02:20:48.964Z,7.35
2023-01-08T02:23:18.058Z,7.75
2023-01-08T02:25:31.475Z,7.22
2023-01-08T02:27:37.237Z,7.95
2023-01-08T02:29:40.766Z,7.72
2023-01-08T02:31:44.726Z,7.90
2023-01-08T02:33:48.111Z,8.07
2023-01-08T02:35:55.630Z,7.38
2023-01-08T02:37:59.066Z,7.40
2023-01-08T02:40:08.530Z,7.32
2023-01-08T02:42:15.413Z,6.95
2023-01-08T02:44:23.170Z,7.57
2023-01-08T02:46:31.815Z,6.70
2023-01-08T02:48:37.898Z,6.97
2023-01-08T02:50:44.341Z,6.70
2023-01-08T02:52:57.116Z,6.80
2023-01-08T02:55:03.833Z,7.38
2023-01-08T02:57:11.253Z,7.55
2023-01-08T02:59:16.291Z,8.15
2023-01-08T03:01:24.211Z,7.00
2023-01-08T03:03:29.458Z,6.45
2023-01-08T03:05:35.133Z,6.50
2023-01-08T03:07:38.820Z,7.18
2023-01-08T03:09:42.419Z,6.65
2023-01-08T03:11:48.566Z,6.70
2023-01-08T03:13:58.310Z,6.78
2023-01-08T03:16:05.407Z,6.55
2023-01-08T03:18:12.733Z,6.40
2023-01-08T03:20:18.437Z,6.40
2023-01-08T03:22:22.904Z,6.20
2023-01-08T03:24:29.501Z,6.40
2023-01-08T03:26:34.035Z,6.32
2023-01-08T03:28:40.462Z,6.57
2023-01-08T03:30:45.107Z,6.25
2023-01-08T03:32:50.283Z,6.15
2023-01-08T03:34:57.307Z,6.20
2023-01-08T03:37:04.394Z,6.30
2023-01-08T03:39:12.275Z,5.93
2023-01-08T03:41:20.057Z,6.45
2023-01-08T03:43:23.423Z,5.78
2023-01-08T03:45:29.004Z,6.25
2023-01-08T03:47:33.450Z,6.60
2023-01-08T03:49:37.950Z,7.68
2023-01-08T03:51:43.879Z,6.47
2023-01-08T03:53:47.796Z,6.60
2023-01-08T03:55:50.966Z,6.13
2023-01-08T03:57:54.145Z,6.70
2023-01-08T03:59:57.291Z,6.68
2023-01-08T04:02:00.509Z,6.50
2023-01-08T04:04:04.276Z,7.10
2023-01-08T04:06:07.769Z,6.10
2023-01-08T04:08:12.063Z,6.70
2023-01-08T04:10:15.110Z,6.05
2023-01-08T04:12:18.127Z,6.32
2023-01-08T04:14:21.237Z,6.03
2023-01-08T04:16:24.300Z,6.47
2023-01-08T04:18:27.439Z,6.70
2023-01-08T04:20:30.587Z,6.70
2023-01-08T04:22:33.646Z,6.45
2023-01-08T04:24:38.100Z,5.88
2023-01-08T04:26:41.099Z,6.25
2023-01-08T04:28:44.095Z,7.03
2023-01-08T04:30:47.281Z,6.60
2023-01-08T04:32:50.237Z,6.75
2023-01-08T04:34:53.705Z,6.15
2023-01-08T04:36:57.051Z,6.47
2023-01-08T04:39:00.089Z,6.10
2023-01-08T04:41:04.620Z,6.88
2023-01-08T04:43:07.634Z,5.90
2023-01-08T04:45:11.399Z,6.38
2023-01-08T04:47:14.416Z,5.80
2023-01-08T04:49:17.405Z,6.32
2023-01-08T04:51:21.525Z,6.15
2023-01-08T04:53:24.454Z,5.55
2023-01-08T04:55:27.466Z,6.18
2023-01-08T04:57:31.891Z,5.82
2023-01-08T04:59:34.976Z,5.50
2023-01-08T05:01:38.072Z,5.68
2023-01-08T05:03:41.632Z,5.93
2023-01-08T05:05:44.629Z,5.80
2023-01-08T05:07:47.671Z,5.68
2023-01-08T05:09:50.664Z,5.55
2023-01-08T05:11:53.841Z,5.80
2023-01-08T05:13:58.175Z,6.20
2023-01-08T05:16:02.046Z,5.88
2023-01-08T05:18:06.839Z,5.95
2023-01-08T05:20:10.888Z,5.90
2023-01-08T05:22:14.007Z,6.10
2023-01-08T05:24:17.266Z,5.90
2023-01-08T05:26:20.346Z,6.13
2023-01-08T05:28:25.687Z,6.03
2023-01-08T05:30:30.912Z,7.15
2023-01-08T05:32:33.992Z,5.70
2023-01-08T05:34:37.065Z,5.97
2023-01-08T05:36:40.036Z,5.70
2023-01-08T05:38:43.149Z,5.78
2023-01-08T05:40:46.241Z,5.55
2023-01-08T05:42:49.202Z,5.90
2023-01-08T05:44:52.239Z,6.47
2023-01-08T05:46:57.025Z,6.40
2023-01-08T05:49:00.071Z,6.13
2023-01-08T05:51:03.374Z,6.90
2023-01-08T05:53:08.388Z,7.20
2023-01-08T05:55:11.680Z,7.70
2023-01-08T05:57:14.715Z,6.90
2023-01-08T05:59:17.764Z,6.22
2023-01-08T06:01:20.868Z,7.65
2023-01-08T06:03:25.575Z,7.90
2023-01-08T06:05:28.726Z,7.13
2023-01-08T06:07:31.799Z,6.60
2023-01-08T06:09:34.961Z,6.28
2023-01-08T06:11:38.010Z,6.63
2023-01-08T06:13:43.329Z,7.15
2023-01-08T06:15:46.460Z,7.05
2023-01-08T06:17:49.721Z,7.18
2023-01-08T06:19:54.110Z,6.60
2023-01-08T06:21:57.620Z,6.82
2023-01-08T06:24:00.717Z,7.88
2023-01-08T06:26:04.953Z,6.32
2023-01-08T06:28:08.467Z,6.60
2023-01-08T06:30:12.123Z,6.30
2023-01-08T06:32:15.188Z,6.80
2023-01-08T06:34:18.247Z,6.25
2023-01-08T06:36:22.788Z,5.88
2023-01-08T06:38:25.871Z,5.50
2023-01-08T06:40:28.968Z,5.35
2023-01-08T06:42:32.082Z,5.72
2023-01-08T06:44:35.168Z,5.38
2023-01-08T06:46:40.357Z,5.43
2023-01-08T06:48:43.405Z,4.60
2023-01-08T06:50:46.417Z,6.20
2023-01-08T06:52:55.024Z,5.07
2023-01-08T06:54:58.127Z,4.40
2023-01-08T06:57:01.069Z,3.58
2023-01-08T06:59:04.523Z,4.22
2023-01-08T07:01:07.800Z,3.60
2023-01-08T07:03:10.884Z,4.22
2023-01-08T07:05:13.867Z,4.47
2023-01-08T07:07:17.014Z,3.80
2023-01-08T07:09:21.559Z,2.40
2023-01-08T07:11:24.576Z,3.05
2023-01-08T07:13:27.662Z,4.57
2023-01-08T07:15:30.655Z,8.60
2023-01-08T07:17:33.839Z,8.95
2023-01-08T07:19:36.793Z,9.15
2023-01-08T07:21:39.741Z,7.72
2023-01-08T07:23:42.816Z,8.20
2023-01-08T07:25:47.450Z,8.10
2023-01-08T07:27:50.566Z,4.20
2023-01-08T07:29:55.946Z,3.50
2023-01-08T07:31:58.944Z,4.50
2023-01-08T07:34:02.004Z,4.70
2023-01-08T07:36:06.714Z,3.33
2023-01-08T07:38:09.769Z,1.60
2023-01-08T07:40:13.423Z,1.48
2023-01-08T07:42:17.826Z,1.45
2023-01-08T07:44:20.813Z,1.50
2023-01-08T07:46:23.944Z,1.30
2023-01-08T07:48:27.161Z,1.70
2023-01-08T07:50:30.230Z,1.50
2023-01-08T07:52:33.287Z,1.45
2023-01-08T07:54:36.357Z,1.60
2023-01-08T07:56:39.445Z,1.67
2023-01-08T07:58:43.982Z,1.88
2023-01-08T08:00:47.114Z,1.70
2023-01-08T08:02:50.523Z,2.33
2023-01-08T08:04:53.810Z,2.45
2023-01-08T08:06:56.858Z,2.42
2023-01-08T08:09:00.441Z,2.25
2023-01-08T08:11:03.477Z,1.80
2023-01-08T08:13:06.773Z,1.58
2023-01-08T08:15:12.329Z,1.90
2023-01-08T08:17:15.371Z,2.08
2023-01-08T08:19:18.392Z,2.20
2023-01-08T08:21:21.475Z,1.70
2023-01-08T08:23:24.755Z,1.60
2023-01-08T08:25:27.833Z,1.95
2023-01-08T08:27:30.848Z,1.85
2023-01-08T08:29:33.975Z,1.65
2023-01-08T08:31:38.542Z,1.80
2023-01-08T08:33:41.658Z,2.00
2023-01-08T08:35:49.704Z,1.80
2023-01-08T08:37:52.698Z,1.75
2023-01-08T08:39:55.653Z,1.52
2023-01-08T08:41:58.866Z,1.55
2023-01-08T08:44:01.875Z,1.30
2023-01-08T08:46:05.077Z,1.33
2023-01-08T08:48:11.217Z,1.55
2023-01-08T08:50:14.312Z,1.80
2023-01-08T08:52:17.382Z,1.40
2023-01-08T08:54:20.455Z,1.67
2023-01-08T08:56:23.450Z,1.60
2023-01-08T08:58:26.657Z,1.50
2023-01-08T09:00:29.679Z,1.55
2023-01-08T09:02:32.843Z,1.52
2023-01-08T09:04:37.758Z,1.52
2023-01-08T09:06:40.954Z,1.50
2023-01-08T09:08:44.212Z,1.67
2023-01-08T09:10:47.224Z,1.50
2023-01-08T09:12:50.624Z,1.70
2023-01-08T09:14:54.818Z,1.73
2023-01-08T09:16:57.911Z,1.67
2023-01-08T09:19:00.884Z,1.75
2023-01-08T09:21:09.459Z,1.50
2023-01-08T09:23:12.508Z,1.50
2023-01-08T09:25:15.679Z,1.60
2023-01-08T09:27:18.815Z,1.58
2023-01-08T09:29:21.966Z,1.70
2023-01-08T09:31:25.080Z,1.80
2023-01-08T09:33:28.108Z,1.42
2023-01-08T09:35:31.174Z,1.38
2023-01-08T09:37:35.607Z,1.70
2023-01-08T09:39:41.160Z,1.30
2023-01-08T09:41:47.652Z,1.40
2023-01-08T09:43:52.846Z,2.47
2023-01-08T09:45:57.701Z,2.30
2023-01-08T09:48:05.001Z,2.05
2023-01-08T09:50:12.535Z,1.53
2023-01-08T09:52:16.600Z,2.80
2023-01-08T09:54:21.876Z,1.70
2023-01-08T09:56:25.254Z,1.70
2023-01-08T09:58:35.211Z,1.50
2023-01-08T10:00:38.297Z,1.73
2023-01-08T10:02:42.191Z,9.18
2023-01-08T10:04:46.157Z,1.70
2023-01-08T10:06:52.596Z,1.57
2023-01-08T10:08:55.603Z,5.27
2023-01-08T10:11:00.231Z,19.50
2023-01-08T10:13:04.036Z,2.67
2023-01-08T10:15:12.433Z,2.20
2023-01-08T10:17:23.365Z,3.10
2023-01-08T10:19:26.457Z,5.93
2023-01-08T10:21:33.711Z,2.88
2023-01-08T10:23:36.827Z,8.13
2023-01-08T10:25:53.683Z,3.57
2023-01-08T10:28:02.009Z,18.33
2023-01-08T10:30:09.149Z,1.70
2023-01-08T10:32:16.325Z,1.80
2023-01-08T10:34:33.278Z,7.97
2023-01-08T10:36:40.821Z,3.72
2023-01-08T10:38:51.089Z,10.07
2023-01-08T10:40:54.410Z,24.85
2023-01-08T10:43:05.877Z,12.27
2023-01-08T10:45:21.548Z,2.65
2023-01-08T10:47:25.146Z,2.88
2023-01-08T10:49:33.186Z,4.70
2023-01-08T10:51:36.308Z,2.60
2023-01-08T10:53:41.244Z,2.10
2023-01-08T10:55:44.709Z,2.00
2023-01-08T10:57:55.223Z,2.25
2023-01-08T10:59:59.718Z,15.80
2023-01-08T11:02:03.004Z,2.83
2023-01-08T11:04:07.362Z,4.85
2023-01-08T11:06:14.961Z,10.13
2023-01-08T11:08:21.916Z,6.03
2023-01-08T11:10:27.294Z,1.90
2023-01-08T11:12:36.458Z,3.70
2023-01-08T11:14:39.990Z,1.43
2023-01-08T11:16:44.891Z,3.13
2023-01-08T11:18:49.188Z,2.30
2023-01-08T11:20:53.558Z,2.72
2023-01-08T11:23:05.787Z,4.25
2023-01-08T11:25:14.512Z,2.00
2023-01-08T11:27:22.148Z,3.23
2023-01-08T11:29:31.490Z,3.38
2023-01-08T11:31:38.331Z,1.50
2023-01-08T11:33:43.770Z,1.73
2023-01-08T11:35:51.231Z,1.50
2023-01-08T11:37:58.408Z,1.20
2023-01-08T11:40:01.977Z,1.87
2023-01-08T11:42:15.502Z,2.13
2023-01-08T11:44:29.499Z,1.80
2023-01-08T11:46:36.550Z,2.20
2023-01-08T11:48:51.943Z,3.10
2023-01-08T11:51:17.870Z,1.67
2023-01-08T11:53:27.313Z,2.67
2023-01-08T11:55:47.483Z,1.98
2023-01-08T11:58:00.534Z,5.60
2023-01-08T12:00:18.326Z,1.80
2023-01-08T12:02:25.600Z,1.50
2023-01-08T12:04:49.878Z,1.30
2023-01-08T12:06:58.817Z,1.50
2023-01-08T12:09:12.155Z,1.20
2023-01-08T12:11:19.559Z,1.60
2023-01-08T12:13:33.767Z,1.17
2023-01-08T12:15:43.033Z,2.20
2023-01-08T12:18:05.811Z,1.40
2023-01-08T12:20:21.031Z,1.13
2023-01-08T12:22:35.019Z,1.10
2023-01-08T12:24:57.477Z,1.43
2023-01-08T12:27:06.304Z,1.07
2023-01-08T12:29:22.724Z,1.17
2023-01-08T12:32:09.634Z,1.10
2023-01-08T12:34:14.334Z,2.90
2023-01-08T12:36:21.417Z,1.00
2023-01-08T12:38:29.027Z,1.00
2023-01-08T12:40:35.072Z,1.13
2023-01-08T12:42:46.713Z,1.70
2023-01-08T12:44:50.208Z,1.20
2023-01-08T12:46:55.077Z,0.87
2023-01-08T12:48:58.727Z,0.80
2023-01-08T12:51:05.545Z,0.82
2023-01-08T12:53:16.248Z,1.00
2023-01-08T12:55:28.507Z,0.90
2023-01-08T12:57:38.908Z,0.88
2023-01-08T12:59:47.477Z,1.10
2023-01-08T13:01:55.536Z,1.00
2023-01-08T13:03:59.889Z,1.20
2023-01-08T13:06:10.452Z,1.07
2023-01-08T13:08:30.603Z,1.67
2023-01-08T13:10:37.053Z,1.50
2023-01-08T13:12:43.711Z,1.03
2023-01-08T13:14:49.668Z,1.10
2023-01-08T13:17:04.195Z,1.00
2023-01-08T13:19:08.701Z,0.87
2023-01-08T13:21:13.059Z,1.03
2023-01-08T13:23:27.171Z,1.30
2023-01-08T13:25:35.347Z,1.10
2023-01-08T13:27:38.499Z,1.20
2023-01-08T13:29:43.489Z,1.10
2023-01-08T13:31:47.018Z,1.30
2023-01-08T13:33:52.703Z,1.07
2023-01-08T13:36:15.405Z,1.60
2023-01-08T13:38:19.870Z,1.20
2023-01-08T13:40:53.780Z,1.50
2023-01-08T13:43:06.714Z,4.63
2023-01-08T13:45:14.361Z,6.97
2023-01-08T13:47:20.811Z,3.50
2023-01-08T13:49:29.751Z,3.30
2023-01-08T13:51:41.247Z,7.27
2023-01-08T13:53:49.011Z,1.70
2023-01-08T13:55:57.550Z,12.27
2023-01-08T13:58:03.479Z,36.63
2023-01-08T14:00:09.999Z,1.83
2023-01-08T14:02:25.460Z,12.17
2023-01-08T14:04:28.873Z,1.73
2023-01-08T14:06:35.045Z,1.03
2023-01-08T14:08:38.326Z,1.10
2023-01-08T14:10:41.665Z,1.00
2023-01-08T14:12:46.618Z,1.20
2023-01-08T14:14:52.179Z,1.03
2023-01-08T14:16:57.011Z,1.03
2023-01-08T14:19:02.546Z,1.30
2023-01-08T14:21:05.970Z,1.00
2023-01-08T14:23:13.260Z,3.63
2023-01-08T14:25:21.863Z,2.00
2023-01-08T14:27:26.983Z,1.73
2023-01-08T14:29:34.733Z,1.47
2023-01-08T14:31:37.974Z,1.40
2023-01-08T14:33:42.325Z,1.27
2023-01-08T14:35:45.417Z,6.07
2023-01-08T14:37:48.787Z,3.93
2023-01-08T14:39:54.716Z,0.90
2023-01-08T14:42:19.556Z,2.67
2023-01-08T14:44:29.192Z,5.33
2023-01-08T14:46:37.513Z,1.87
2023-01-08T14:48:43.248Z,4.90
2023-01-08T14:50:58.822Z,0.80
2023-01-08T14:53:06.952Z,0.80
2023-01-08T14:55:15.061Z,0.87
2023-01-08T14:57:18.767Z,1.00
2023-01-08T14:59:23.236Z,3.40
2023-01-08T15:01:28.140Z,3.27
2023-01-08T15:03:37.987Z,0.70
2023-01-08T15:05:49.949Z,2.50
2023-01-08T15:08:01.680Z,0.90
2023-01-08T15:10:05.367Z,2.37
2023-01-08T15:12:23.435Z,0.87
2023-01-08T15:14:27.947Z,0.80
2023-01-08T15:16:33.331Z,0.80
2023-01-08T15:18:46.142Z,1.00
2023-01-08T15:20:49.406Z,0.90
2023-01-08T15:22:52.637Z,0.70
2023-01-08T15:24:59.348Z,0.70
2023-01-08T15:27:09.673Z,1.23
2023-01-08T15:29:19.665Z,1.30
2023-01-08T15:31:27.720Z,1.27
2023-01-08T15:33:30.854Z,1.30
2023-01-08T15:35:35.309Z,2.00
2023-01-08T15:37:38.413Z,1.97
2023-01-08T15:39:41.569Z,1.80
2023-01-08T15:42:02.401Z,2.70
2023-01-08T15:44:05.899Z,2.67
2023-01-08T15:46:10.620Z,2.43
2023-01-08T15:48:13.944Z,2.27
2023-01-08T15:50:17.244Z,2.50
2023-01-08T15:52:23.336Z,2.60
2023-01-08T15:54:27.047Z,2.73
2023-01-08T15:56:30.152Z,2.70
2023-01-08T15:58:33.284Z,3.37
2023-01-08T16:00:36.289Z,2.90
2023-01-08T16:02:44.922Z,3.23
2023-01-08T16:04:53.203Z,3.90
2023-01-08T16:06:56.353Z,3.67
2023-01-08T16:09:01.616Z,3.03
2023-01-08T16:11:04.742Z,3.70
2023-01-08T16:13:10.215Z,4.13
2023-01-08T16:15:16.129Z,4.57
2023-01-08T16:17:19.304Z,3.83
2023-01-08T16:19:24.910Z,3.60
2023-01-08T16:21:28.189Z,3.47
2023-01-08T16:23:31.524Z,3.23
2023-01-08T16:25:36.323Z,3.43
2023-01-08T16:27:40.334Z,3.00
2023-01-08T16:29:43.335Z,3.40
2023-01-08T16:31:47.592Z,3.33
2023-01-08T16:33:51.220Z,3.10
2023-01-08T16:35:58.106Z,3.27
2023-01-08T16:38:01.217Z,2.90
2023-01-08T16:40:04.638Z,3.43
2023-01-08T16:42:11.971Z,3.20
2023-01-08T16:44:20.185Z,3.90
2023-01-08T16:46:23.607Z,3.70
2023-01-08T16:48:26.680Z,3.40
2023-01-08T16:50:30.013Z,3.80
2023-01-08T16:52:33.114Z,3.50
2023-01-08T16:54:36.437Z,4.00
2023-01-08T16:56:39.633Z,4.10
2023-01-08T16:58:44.298Z,3.90
2023-01-08T17:00:48.444Z,3.67
2023-01-08T17:02:51.618Z,4.47
2023-01-08T17:04:54.719Z,4.07
2023-01-08T17:06:57.828Z,5.00
2023-01-08T17:09:01.099Z,6.50
2023-01-08T17:11:08.727Z,6.33
2023-01-08T17:13:11.813Z,6.40
2023-01-08T17:15:16.610Z,6.80
2023-01-08T17:17:19.892Z,5.73
2023-01-08T17:19:23.262Z,5.97
2023-01-08T17:21:26.680Z,6.00
2023-01-08T17:23:30.296Z,5.50
2023-01-08T17:25:33.597Z,6.37
2023-01-08T17:27:37.054Z,15.80
2023-01-08T17:29:40.444Z,7.70
2023-01-08T17:31:50.842Z,8.10
2023-01-08T17:33:54.620Z,8.33
2023-01-08T17:35:58.828Z,5.77
2023-01-08T17:38:02.384Z,5.87
2023-01-08T17:40:06.372Z,5.23
2023-01-08T17:42:27.017Z,15.03
2023-01-08T17:44:31.124Z,20.73
2023-01-08T17:46:35.613Z,5.90
2023-01-08T17:48:41.901Z,5.73
2023-01-08T17:50:45.366Z,4.83
2023-01-08T17:52:48.799Z,5.97
2023-01-08T17:54:52.876Z,5.43
2023-01-08T17:56:55.953Z,5.30
2023-01-08T17:58:59.223Z,5.73
2023-01-08T18:01:02.378Z,5.73
2023-01-08T18:03:05.625Z,6.03
2023-01-08T18:05:10.793Z,12.73
2023-01-08T18:07:14.481Z,13.77
2023-01-08T18:09:17.593Z,15.33
2023-01-08T18:11:20.678Z,13.87
2023-01-08T18:13:23.864Z,20.53
2023-01-08T18:15:27.108Z,28.33
2023-01-08T18:17:31.351Z,24.30
2023-01-08T18:19:34.645Z,26.80
2023-01-08T18:21:39.191Z,12.30
2023-01-08T18:23:42.305Z,8.10
2023-01-08T18:25:45.453Z,8.10
2023-01-08T18:27:48.728Z,7.43
2023-01-08T18:29:54.614Z,6.97
2023-01-08T18:31:59.566Z,7.30
2023-01-08T18:34:03.806Z,7.47
2023-01-08T18:36:09.591Z,6.50
2023-01-08T18:38:15.903Z,6.10
2023-01-08T18:40:19.363Z,3.67
2023-01-08T18:42:28.757Z,3.73
2023-01-08T18:44:32.023Z,4.20
2023-01-08T18:46:35.323Z,4.23
2023-01-08T18:48:38.860Z,4.60
2023-01-08T18:50:42.131Z,4.70
2023-01-08T18:52:45.440Z,7.97
2023-01-08T18:54:50.074Z,5.37
2023-01-08T18:56:53.223Z,6.43
2023-01-08T18:58:56.704Z,4.70
2023-01-08T19:01:04.268Z,5.47
2023-01-08T19:03:09.331Z,13.80
2023-01-08T19:05:12.534Z,13.10
2023-01-08T19:07:15.906Z,10.73
2023-01-08T19:09:18.985Z,8.60
2023-01-08T19:11:23.406Z,11.03
2023-01-08T19:13:26.520Z,13.57
2023-01-08T19:15:29.718Z,16.37
2023-01-08T19:17:33.585Z,19.03
2023-01-08T19:19:36.927Z,13.73
2023-01-08T19:21:40.025Z,17.00
2023-01-08T19:23:43.185Z,15.90
2023-01-08T19:25:46.411Z,15.00
2023-01-08T19:27:50.979Z,21.03
2023-01-08T19:29:54.221Z,12.43
2023-01-08T19:31:57.384Z,16.40
2023-01-08T19:34:00.989Z,12.60
2023-01-08T19:36:08.547Z,12.07
2023-01-08T19:38:11.686Z,12.00
2023-01-08T19:40:15.040Z,12.60
2023-01-08T19:42:35.798Z,12.80
2023-01-08T19:44:40.275Z,13.77
2023-01-08T19:46:43.432Z,12.80
2023-01-08T19:48:46.534Z,18.70
2023-01-08T19:50:50.015Z,13.63
2023-01-08T19:52:53.163Z,12.17
2023-01-08T19:54:57.679Z,12.30
2023-01-08T19:57:00.830Z,10.35
2023-01-08T19:59:04.824Z,10.67
2023-01-08T20:01:14.030Z,12.57
2023-01-08T20:03:19.955Z,11.97
2023-01-08T20:05:23.163Z,40.03
2023-01-08T20:07:26.371Z,15.30
2023-01-08T20:09:29.898Z,14.90
2023-01-08T20:11:33.370Z,12.77
2023-01-08T20:13:37.144Z,15.53
2023-01-08T20:15:40.395Z,14.30
2023-01-08T20:17:44.892Z,16.30
2023-01-08T20:19:50.092Z,12.50
2023-01-08T20:21:53.354Z,12.10
2023-01-08T20:23:59.160Z,12.43
2023-01-08T20:26:03.360Z,10.80
2023-01-08T20:28:06.630Z,11.10
2023-01-08T20:30:11.021Z,7.77
2023-01-08T20:32:14.152Z,6.67
2023-01-08T20:34:18.790Z,5.90
2023-01-08T20:36:23.770Z,5.37
2023-01-08T20:38:26.941Z,4.50
2023-01-08T20:40:30.050Z,5.37
2023-01-08T20:42:34.478Z,7.60
2023-01-08T20:44:37.837Z,7.00
2023-01-08T20:46:41.541Z,5.77
2023-01-08T20:48:48.443Z,4.33
2023-01-08T20:50:57.119Z,4.90
2023-01-08T20:53:00.420Z,4.70
2023-01-08T20:55:04.075Z,4.37
2023-01-08T20:57:07.156Z,5.67
2023-01-08T20:59:10.415Z,4.90
2023-01-08T21:01:16.336Z,4.73
2023-01-08T21:03:19.463Z,4.87
2023-01-08T21:05:22.606Z,4.65
2023-01-08T21:07:29.841Z,4.73
2023-01-08T21:09:32.867Z,4.73
2023-01-08T21:11:37.011Z,3.80
2023-01-08T21:13:40.589Z,4.30
2023-01-08T21:15:43.679Z,4.50
2023-01-08T21:17:46.695Z,3.90
2023-01-08T21:19:49.729Z,3.93
2023-01-08T21:21:52.834Z,3.80
2023-01-08T21:23:57.901Z,4.23
2023-01-08T21:26:02.733Z,3.80
2023-01-08T21:28:05.942Z,4.50
2023-01-08T21:30:10.451Z,5.03
2023-01-08T21:32:13.528Z,6.97
2023-01-08T21:34:16.958Z,5.03
2023-01-08T21:36:22.305Z,4.60
2023-01-08T21:38:25.544Z,3.92
2023-01-08T21:40:30.039Z,3.90
2023-01-08T21:42:50.709Z,3.87
2023-01-08T21:45:11.282Z,4.03
2023-01-08T21:47:16.373Z,3.83
2023-01-08T21:49:19.458Z,4.00
2023-01-08T21:51:39.925Z,3.63
2023-01-08T21:53:43.030Z,3.43
2023-01-08T21:55:47.565Z,3.47
2023-01-08T21:57:50.981Z,3.20
2023-01-08T21:59:54.693Z,3.50
2023-01-08T22:01:57.988Z,3.40
2023-01-08T22:04:01.210Z,3.40
2023-01-08T22:06:06.409Z,3.40
2023-01-08T22:08:14.100Z,3.50
2023-01-08T22:10:17.869Z,3.40
2023-01-08T22:12:23.730Z,3.50
2023-01-08T22:14:27.127Z,2.80
2023-01-08T22:16:30.233Z,2.80
2023-01-08T22:18:33.743Z,3.30
2023-01-08T22:20:36.757Z,3.33
2023-01-08T22:22:41.159Z,3.03
2023-01-08T22:24:44.305Z,3.47
2023-01-08T22:26:48.634Z,3.80
2023-01-08T22:28:53.098Z,2.70
2023-01-08T22:30:56.781Z,2.37
2023-01-08T22:32:59.962Z,2.50
2023-01-08T22:35:03.008Z,2.67
2023-01-08T22:37:06.329Z,2.93
2023-01-08T22:39:09.411Z,3.00
2023-01-08T22:41:16.910Z,2.70
2023-01-08T22:43:20.020Z,2.80
2023-01-08T22:45:24.489Z,2.87
2023-01-08T22:47:27.610Z,2.93
2023-01-08T22:49:30.640Z,3.30
2023-01-08T22:51:33.824Z,3.97
2023-01-08T22:53:36.941Z,4.00
2023-01-08T22:55:41.612Z,4.03
2023-01-08T22:57:44.682Z,4.50
2023-01-08T22:59:47.886Z,4.40
2023-01-08T23:01:52.429Z,4.70
2023-01-08T23:03:58.436Z,4.00
2023-01-08T23:06:02.490Z,4.00
2023-01-08T23:08:05.793Z,4.60
2023-01-08T23:10:10.954Z,4.90
2023-01-08T23:12:14.354Z,5.60
2023-01-08T23:14:17.395Z,5.53
2023-01-08T23:16:24.389Z,6.70
2023-01-08T23:18:29.356Z,6.40
2023-01-08T23:20:32.522Z,6.60
2023-01-08T23:22:36.574Z,7.18
2023-01-08T23:24:39.681Z,6.80
2023-01-08T23:26:42.851Z,6.93
2023-01-08T23:28:45.938Z,7.20
2023-01-08T23:30:49.021Z,6.50
2023-01-08T23:32:52.170Z,7.85
2023-01-08T23:34:57.028Z,6.53
2023-01-08T23:37:00.147Z,7.40
2023-01-08T23:39:03.193Z,7.60
2023-01-08T23:41:07.482Z,7.30
2023-01-08T23:43:10.528Z,8.17
2023-01-08T23:45:13.592Z,6.85
2023-01-08T23:47:16.869Z,6.80
2023-01-08T23:49:19.865Z,6.60
2023-01-08T23:51:24.567Z,6.37
2023-01-08T23:53:27.942Z,6.23
2023-01-08T23:55:31.112Z,6.47
2023-01-08T23:57:34.201Z,6.13
2023-01-08T23:59:37.423Z,6.40
